sensor_id;sensor_type;location;lat;lon;timestamp;P1;durP1;ratioP1;P2;durP2;ratioP2
21444;SDS011;10883;51.946;20.140;2023-01-25T00:01:50;83.87;;;38.13;;
21444;SDS011;10883;51.946;20.140;2023-01-25T00:04:20;76.60;;;35.03;;
21444;SDS011;10883;51.946;20.140;2023-01-25T00:06:46;80.03;;;36.70;;
21444;SDS011;10883;51.946;20.140;2023-01-25T00:09:13;85.80;;;37.90;;
21444;SDS011;10883;51.946;20.140;2023-01-25T00:11:39;78.50;;;34.95;;
21444;SDS011;10883;51.946;20.140;2023-01-25T00:14:05;79.07;;;36.83;;
21444;SDS011;10883;51.946;20.140;2023-01-25T00:16:31;79.07;;;34.85;;
21444;SDS011;10883;51.946;20.140;2023-01-25T00:18:57;78.07;;;35.58;;
21444;SDS011;10883;51.946;20.140;2023-01-25T00:21:24;75.65;;;35.67;;
21444;SDS011;10883;51.946;20.140;2023-01-25T00:23:51;78.30;;;34.13;;
21444;SDS011;10883;51.946;20.140;2023-01-25T00:26:17;76.35;;;33.78;;
21444;SDS011;10883;51.946;20.140;2023-01-25T00:28:52;75.65;;;33.63;;
21444;SDS011;10883;51.946;20.140;2023-01-25T00:31:31;71.03;;;32.78;;
21444;SDS011;10883;51.946;20.140;2023-01-25T00:36:51;79.00;;;35.00;;
21444;SDS011;10883;51.946;20.140;2023-01-25T00:39:26;72.55;;;33.17;;
21444;SDS011;10883;51.946;20.140;2023-01-25T00:41:52;70.57;;;32.10;;
21444;SDS011;10883;51.946;20.140;2023-01-25T00:44:18;67.00;;;31.95;;
21444;SDS011;10883;51.946;20.140;2023-01-25T00:46:44;68.63;;;33.30;;
21444;SDS011;10883;51.946;20.140;2023-01-25T00:49:20;75.57;;;34.72;;
21444;SDS011;10883;51.946;20.140;2023-01-25T00:51:47;72.22;;;34.10;;
21444;SDS011;10883;51.946;20.140;2023-01-25T00:54:14;71.97;;;33.70;;
21444;SDS011;10883;51.946;20.140;2023-01-25T00:56:40;73.82;;;34.30;;
21444;SDS011;10883;51.946;20.140;2023-01-25T00:59:06;72.72;;;33.08;;
21444;SDS011;10883;51.946;20.140;2023-01-25T01:01:32;72.25;;;33.55;;
21444;SDS011;10883;51.946;20.140;2023-01-25T01:03:58;76.90;;;34.33;;
21444;SDS011;10883;51.946;20.140;2023-01-25T01:06:24;69.03;;;33.97;;
21444;SDS011;10883;51.946;20.140;2023-01-25T01:08:50;73.20;;;33.90;;
21444;SDS011;10883;51.946;20.140;2023-01-25T01:11:16;70.23;;;31.73;;
21444;SDS011;10883;51.946;20.140;2023-01-25T01:13:41;69.03;;;32.78;;
21444;SDS011;10883;51.946;20.140;2023-01-25T01:16:07;66.03;;;32.10;;
21444;SDS011;10883;51.946;20.140;2023-01-25T01:18:37;64.10;;;31.35;;
21444;SDS011;10883;51.946;20.140;2023-01-25T01:21:04;65.72;;;31.23;;
21444;SDS011;10883;51.946;20.140;2023-01-25T01:23:32;71.15;;;33.38;;
21444;SDS011;10883;51.946;20.140;2023-01-25T01:25:58;69.63;;;32.55;;
21444;SDS011;10883;51.946;20.140;2023-01-25T01:28:28;75.30;;;32.97;;
21444;SDS011;10883;51.946;20.140;2023-01-25T01:30:59;63.50;;;31.85;;
21444;SDS011;10883;51.946;20.140;2023-01-25T01:33:25;73.68;;;35.00;;
21444;SDS011;10883;51.946;20.140;2023-01-25T01:35:51;64.57;;;32.23;;
21444;SDS011;10883;51.946;20.140;2023-01-25T01:38:16;74.22;;;31.90;;
21444;SDS011;10883;51.946;20.140;2023-01-25T01:40:45;64.23;;;29.80;;
21444;SDS011;10883;51.946;20.140;2023-01-25T01:43:15;56.85;;;28.45;;
21444;SDS011;10883;51.946;20.140;2023-01-25T01:48:19;43.47;;;22.20;;
21444;SDS011;10883;51.946;20.140;2023-01-25T01:50:50;50.87;;;24.07;;
21444;SDS011;10883;51.946;20.140;2023-01-25T01:53:20;43.13;;;21.27;;
21444;SDS011;10883;51.946;20.140;2023-01-25T01:55:48;40.42;;;21.13;;
21444;SDS011;10883;51.946;20.140;2023-01-25T01:58:14;34.47;;;19.45;;
21444;SDS011;10883;51.946;20.140;2023-01-25T02:00:40;39.40;;;19.83;;
21444;SDS011;10883;51.946;20.140;2023-01-25T02:03:06;38.53;;;20.83;;
21444;SDS011;10883;51.946;20.140;2023-01-25T02:05:39;37.10;;;19.60;;
21444;SDS011;10883;51.946;20.140;2023-01-25T02:08:18;36.63;;;18.13;;
21444;SDS011;10883;51.946;20.140;2023-01-25T02:10:45;41.65;;;20.45;;
21444;SDS011;10883;51.946;20.140;2023-01-25T02:13:13;36.53;;;19.33;;
21444;SDS011;10883;51.946;20.140;2023-01-25T02:15:43;34.70;;;18.70;;
21444;SDS011;10883;51.946;20.140;2023-01-25T02:18:11;39.20;;;20.20;;
21444;SDS011;10883;51.946;20.140;2023-01-25T02:20:47;38.57;;;19.57;;
21444;SDS011;10883;51.946;20.140;2023-01-25T02:23:19;40.77;;;21.20;;
21444;SDS011;10883;51.946;20.140;2023-01-25T02:25:55;40.92;;;19.63;;
21444;SDS011;10883;51.946;20.140;2023-01-25T02:28:24;38.47;;;19.85;;
21444;SDS011;10883;51.946;20.140;2023-01-25T02:31:07;35.27;;;19.20;;
21444;SDS011;10883;51.946;20.140;2023-01-25T02:33:33;33.63;;;18.17;;
21444;SDS011;10883;51.946;20.140;2023-01-25T02:36:44;38.40;;;18.83;;
21444;SDS011;10883;51.946;20.140;2023-01-25T02:38:53;39.53;;;19.03;;
21444;SDS011;10883;51.946;20.140;2023-01-25T02:41:35;32.10;;;18.17;;
21444;SDS011;10883;51.946;20.140;2023-01-25T02:44:04;39.00;;;19.43;;
21444;SDS011;10883;51.946;20.140;2023-01-25T02:46:36;32.93;;;18.37;;
21444;SDS011;10883;51.946;20.140;2023-01-25T02:49:03;32.67;;;16.13;;
21444;SDS011;10883;51.946;20.140;2023-01-25T02:51:32;32.20;;;17.95;;
21444;SDS011;10883;51.946;20.140;2023-01-25T02:54:01;38.10;;;18.13;;
21444;SDS011;10883;51.946;20.140;2023-01-25T02:56:28;37.97;;;20.85;;
21444;SDS011;10883;51.946;20.140;2023-01-25T02:58:54;40.83;;;22.47;;
21444;SDS011;10883;51.946;20.140;2023-01-25T03:01:20;44.93;;;25.60;;
21444;SDS011;10883;51.946;20.140;2023-01-25T03:03:46;38.58;;;22.08;;
21444;SDS011;10883;51.946;20.140;2023-01-25T03:06:12;41.87;;;24.27;;
21444;SDS011;10883;51.946;20.140;2023-01-25T03:08:38;42.70;;;24.47;;
21444;SDS011;10883;51.946;20.140;2023-01-25T03:11:04;42.22;;;23.17;;
21444;SDS011;10883;51.946;20.140;2023-01-25T03:13:31;35.70;;;19.73;;
21444;SDS011;10883;51.946;20.140;2023-01-25T03:15:58;39.60;;;21.00;;
21444;SDS011;10883;51.946;20.140;2023-01-25T03:18:25;32.53;;;18.67;;
21444;SDS011;10883;51.946;20.140;2023-01-25T03:20:51;33.33;;;18.40;;
21444;SDS011;10883;51.946;20.140;2023-01-25T03:23:17;36.77;;;18.50;;
21444;SDS011;10883;51.946;20.140;2023-01-25T03:25:42;36.03;;;19.00;;
21444;SDS011;10883;51.946;20.140;2023-01-25T03:28:08;36.63;;;19.17;;
21444;SDS011;10883;51.946;20.140;2023-01-25T03:30:34;30.20;;;15.87;;
21444;SDS011;10883;51.946;20.140;2023-01-25T03:32:59;30.37;;;16.47;;
21444;SDS011;10883;51.946;20.140;2023-01-25T03:35:25;28.70;;;15.30;;
21444;SDS011;10883;51.946;20.140;2023-01-25T03:37:51;29.23;;;16.00;;
21444;SDS011;10883;51.946;20.140;2023-01-25T03:40:17;31.83;;;17.50;;
21444;SDS011;10883;51.946;20.140;2023-01-25T03:42:43;33.03;;;18.17;;
21444;SDS011;10883;51.946;20.140;2023-01-25T03:45:09;29.23;;;16.70;;
21444;SDS011;10883;51.946;20.140;2023-01-25T03:47:38;32.17;;;16.57;;
21444;SDS011;10883;51.946;20.140;2023-01-25T03:50:04;30.80;;;17.30;;
21444;SDS011;10883;51.946;20.140;2023-01-25T03:52:33;32.10;;;16.93;;
21444;SDS011;10883;51.946;20.140;2023-01-25T03:55:06;30.03;;;16.33;;
21444;SDS011;10883;51.946;20.140;2023-01-25T03:57:32;37.73;;;18.97;;
21444;SDS011;10883;51.946;20.140;2023-01-25T03:59:58;42.78;;;17.77;;
21444;SDS011;10883;51.946;20.140;2023-01-25T04:02:24;36.70;;;18.43;;
21444;SDS011;10883;51.946;20.140;2023-01-25T04:04:49;35.00;;;18.83;;
21444;SDS011;10883;51.946;20.140;2023-01-25T04:07:15;31.70;;;17.47;;
21444;SDS011;10883;51.946;20.140;2023-01-25T04:09:41;36.10;;;17.20;;
21444;SDS011;10883;51.946;20.140;2023-01-25T04:12:06;34.10;;;18.00;;
21444;SDS011;10883;51.946;20.140;2023-01-25T04:14:32;30.90;;;16.23;;
21444;SDS011;10883;51.946;20.140;2023-01-25T04:16:58;37.63;;;19.40;;
21444;SDS011;10883;51.946;20.140;2023-01-25T04:19:24;30.50;;;15.90;;
21444;SDS011;10883;51.946;20.140;2023-01-25T04:21:49;39.22;;;19.25;;
21444;SDS011;10883;51.946;20.140;2023-01-25T04:24:15;34.40;;;18.23;;
21444;SDS011;10883;51.946;20.140;2023-01-25T04:26:41;33.15;;;17.23;;
21444;SDS011;10883;51.946;20.140;2023-01-25T04:29:06;37.55;;;17.27;;
21444;SDS011;10883;51.946;20.140;2023-01-25T04:31:34;35.15;;;16.77;;
21444;SDS011;10883;51.946;20.140;2023-01-25T04:33:59;29.02;;;15.20;;
21444;SDS011;10883;51.946;20.140;2023-01-25T04:36:25;31.20;;;15.77;;
21444;SDS011;10883;51.946;20.140;2023-01-25T04:38:51;32.28;;;15.85;;
21444;SDS011;10883;51.946;20.140;2023-01-25T04:41:16;29.80;;;14.27;;
21444;SDS011;10883;51.946;20.140;2023-01-25T04:43:42;33.17;;;17.03;;
21444;SDS011;10883;51.946;20.140;2023-01-25T04:46:08;31.17;;;15.73;;
21444;SDS011;10883;51.946;20.140;2023-01-25T04:48:34;35.17;;;16.73;;
21444;SDS011;10883;51.946;20.140;2023-01-25T04:50:59;33.60;;;16.57;;
21444;SDS011;10883;51.946;20.140;2023-01-25T04:53:25;35.83;;;16.93;;
21444;SDS011;10883;51.946;20.140;2023-01-25T04:55:51;30.20;;;16.17;;
21444;SDS011;10883;51.946;20.140;2023-01-25T04:58:17;32.70;;;15.30;;
21444;SDS011;10883;51.946;20.140;2023-01-25T05:00:43;33.10;;;17.53;;
21444;SDS011;10883;51.946;20.140;2023-01-25T05:03:09;40.93;;;17.33;;
21444;SDS011;10883;51.946;20.140;2023-01-25T05:05:35;39.70;;;19.17;;
21444;SDS011;10883;51.946;20.140;2023-01-25T05:08:00;42.43;;;20.50;;
21444;SDS011;10883;51.946;20.140;2023-01-25T05:10:26;47.07;;;19.30;;
21444;SDS011;10883;51.946;20.140;2023-01-25T05:12:52;35.03;;;17.03;;
21444;SDS011;10883;51.946;20.140;2023-01-25T05:15:17;36.90;;;17.60;;
21444;SDS011;10883;51.946;20.140;2023-01-25T05:17:43;46.37;;;19.87;;
21444;SDS011;10883;51.946;20.140;2023-01-25T05:20:09;42.50;;;19.00;;
21444;SDS011;10883;51.946;20.140;2023-01-25T05:22:35;49.80;;;19.73;;
21444;SDS011;10883;51.946;20.140;2023-01-25T05:25:02;33.53;;;16.83;;
21444;SDS011;10883;51.946;20.140;2023-01-25T05:27:30;41.10;;;19.10;;
21444;SDS011;10883;51.946;20.140;2023-01-25T05:29:56;43.17;;;19.37;;
21444;SDS011;10883;51.946;20.140;2023-01-25T05:32:22;36.23;;;16.23;;
21444;SDS011;10883;51.946;20.140;2023-01-25T05:34:48;32.80;;;16.93;;
21444;SDS011;10883;51.946;20.140;2023-01-25T05:37:15;38.73;;;18.57;;
21444;SDS011;10883;51.946;20.140;2023-01-25T05:39:43;42.47;;;21.50;;
21444;SDS011;10883;51.946;20.140;2023-01-25T05:42:13;41.20;;;21.03;;
21444;SDS011;10883;51.946;20.140;2023-01-25T05:44:40;42.50;;;22.10;;
21444;SDS011;10883;51.946;20.140;2023-01-25T05:47:07;45.93;;;23.57;;
21444;SDS011;10883;51.946;20.140;2023-01-25T05:49:38;37.65;;;19.40;;
21444;SDS011;10883;51.946;20.140;2023-01-25T05:52:04;48.80;;;22.53;;
21444;SDS011;10883;51.946;20.140;2023-01-25T05:54:30;41.57;;;20.77;;
21444;SDS011;10883;51.946;20.140;2023-01-25T05:56:55;38.73;;;19.60;;
21444;SDS011;10883;51.946;20.140;2023-01-25T05:59:21;38.40;;;20.27;;
21444;SDS011;10883;51.946;20.140;2023-01-25T06:01:47;53.43;;;24.03;;
21444;SDS011;10883;51.946;20.140;2023-01-25T06:04:15;67.93;;;28.37;;
21444;SDS011;10883;51.946;20.140;2023-01-25T06:06:41;50.00;;;22.37;;
21444;SDS011;10883;51.946;20.140;2023-01-25T06:09:09;51.23;;;22.90;;
21444;SDS011;10883;51.946;20.140;2023-01-25T06:11:38;63.20;;;26.70;;
21444;SDS011;10883;51.946;20.140;2023-01-25T06:14:06;46.87;;;20.37;;
21444;SDS011;10883;51.946;20.140;2023-01-25T06:16:32;39.37;;;18.40;;
21444;SDS011;10883;51.946;20.140;2023-01-25T06:18:58;49.97;;;20.80;;
21444;SDS011;10883;51.946;20.140;2023-01-25T06:21:23;46.23;;;21.67;;
21444;SDS011;10883;51.946;20.140;2023-01-25T06:23:49;44.57;;;21.97;;
21444;SDS011;10883;51.946;20.140;2023-01-25T06:26:15;52.07;;;24.77;;
21444;SDS011;10883;51.946;20.140;2023-01-25T06:28:41;36.72;;;19.52;;
21444;SDS011;10883;51.946;20.140;2023-01-25T06:31:08;41.83;;;20.43;;
21444;SDS011;10883;51.946;20.140;2023-01-25T06:33:34;44.20;;;22.07;;
21444;SDS011;10883;51.946;20.140;2023-01-25T06:36:00;42.60;;;21.50;;
21444;SDS011;10883;51.946;20.140;2023-01-25T06:38:28;48.47;;;22.90;;
21444;SDS011;10883;51.946;20.140;2023-01-25T06:40:57;48.13;;;23.83;;
21444;SDS011;10883;51.946;20.140;2023-01-25T06:43:27;45.37;;;23.27;;
21444;SDS011;10883;51.946;20.140;2023-01-25T06:46:11;59.47;;;25.00;;
21444;SDS011;10883;51.946;20.140;2023-01-25T06:48:37;50.93;;;24.60;;
21444;SDS011;10883;51.946;20.140;2023-01-25T06:51:06;52.90;;;24.67;;
21444;SDS011;10883;51.946;20.140;2023-01-25T06:53:35;60.63;;;26.17;;
21444;SDS011;10883;51.946;20.140;2023-01-25T06:56:07;51.03;;;24.30;;
21444;SDS011;10883;51.946;20.140;2023-01-25T06:58:34;48.93;;;23.47;;
21444;SDS011;10883;51.946;20.140;2023-01-25T07:01:04;50.80;;;21.97;;
21444;SDS011;10883;51.946;20.140;2023-01-25T07:03:32;56.87;;;25.20;;
21444;SDS011;10883;51.946;20.140;2023-01-25T07:06:03;54.23;;;24.63;;
21444;SDS011;10883;51.946;20.140;2023-01-25T07:08:30;45.33;;;21.13;;
21444;SDS011;10883;51.946;20.140;2023-01-25T07:10:58;48.13;;;21.97;;
21444;SDS011;10883;51.946;20.140;2023-01-25T07:13:25;44.60;;;21.90;;
21444;SDS011;10883;51.946;20.140;2023-01-25T07:16:02;58.10;;;26.27;;
21444;SDS011;10883;51.946;20.140;2023-01-25T07:18:30;49.43;;;23.93;;
21444;SDS011;10883;51.946;20.140;2023-01-25T07:21:10;49.27;;;22.70;;
21444;SDS011;10883;51.946;20.140;2023-01-25T07:23:41;42.83;;;20.15;;
21444;SDS011;10883;51.946;20.140;2023-01-25T07:26:14;47.88;;;22.05;;
21444;SDS011;10883;51.946;20.140;2023-01-25T07:28:58;48.87;;;22.87;;
21444;SDS011;10883;51.946;20.140;2023-01-25T07:31:24;51.03;;;23.33;;
21444;SDS011;10883;51.946;20.140;2023-01-25T07:33:51;48.27;;;22.63;;
21444;SDS011;10883;51.946;20.140;2023-01-25T07:36:18;47.20;;;22.13;;
21444;SDS011;10883;51.946;20.140;2023-01-25T07:38:44;45.13;;;21.30;;
21444;SDS011;10883;51.946;20.140;2023-01-25T07:41:10;50.77;;;23.77;;
21444;SDS011;10883;51.946;20.140;2023-01-25T07:43:37;46.07;;;22.57;;
21444;SDS011;10883;51.946;20.140;2023-01-25T07:46:04;48.63;;;22.67;;
21444;SDS011;10883;51.946;20.140;2023-01-25T07:48:31;48.37;;;23.03;;
21444;SDS011;10883;51.946;20.140;2023-01-25T07:50:58;51.00;;;22.03;;
21444;SDS011;10883;51.946;20.140;2023-01-25T07:53:37;62.45;;;26.30;;
21444;SDS011;10883;51.946;20.140;2023-01-25T07:56:05;54.87;;;25.87;;
21444;SDS011;10883;51.946;20.140;2023-01-25T07:58:31;54.77;;;28.00;;
21444;SDS011;10883;51.946;20.140;2023-01-25T08:01:04;66.25;;;28.63;;
21444;SDS011;10883;51.946;20.140;2023-01-25T08:03:33;75.23;;;29.77;;
21444;SDS011;10883;51.946;20.140;2023-01-25T08:05:59;66.10;;;30.05;;
21444;SDS011;10883;51.946;20.140;2023-01-25T08:08:25;82.23;;;29.47;;
21444;SDS011;10883;51.946;20.140;2023-01-25T08:10:51;57.55;;;27.77;;
21444;SDS011;10883;51.946;20.140;2023-01-25T08:13:17;51.47;;;24.77;;
21444;SDS011;10883;51.946;20.140;2023-01-25T08:15:42;61.33;;;28.67;;
21444;SDS011;10883;51.946;20.140;2023-01-25T08:18:08;67.30;;;32.37;;
21444;SDS011;10883;51.946;20.140;2023-01-25T08:20:34;62.00;;;29.45;;
21444;SDS011;10883;51.946;20.140;2023-01-25T08:23:01;50.60;;;25.10;;
21444;SDS011;10883;51.946;20.140;2023-01-25T08:25:27;41.90;;;20.93;;
21444;SDS011;10883;51.946;20.140;2023-01-25T08:27:53;38.10;;;20.13;;
21444;SDS011;10883;51.946;20.140;2023-01-25T08:30:19;42.60;;;19.27;;
21444;SDS011;10883;51.946;20.140;2023-01-25T08:32:44;37.03;;;19.77;;
21444;SDS011;10883;51.946;20.140;2023-01-25T08:35:10;41.50;;;19.87;;
21444;SDS011;10883;51.946;20.140;2023-01-25T08:37:36;35.77;;;18.63;;
21444;SDS011;10883;51.946;20.140;2023-01-25T08:40:01;41.17;;;19.47;;
21444;SDS011;10883;51.946;20.140;2023-01-25T08:42:28;42.27;;;20.80;;
21444;SDS011;10883;51.946;20.140;2023-01-25T08:44:53;43.93;;;22.20;;
21444;SDS011;10883;51.946;20.140;2023-01-25T08:47:19;42.65;;;22.05;;
21444;SDS011;10883;51.946;20.140;2023-01-25T08:49:45;41.55;;;21.05;;
21444;SDS011;10883;51.946;20.140;2023-01-25T08:52:10;42.50;;;21.20;;
21444;SDS011;10883;51.946;20.140;2023-01-25T08:54:39;43.00;;;21.83;;
21444;SDS011;10883;51.946;20.140;2023-01-25T08:57:08;47.33;;;22.67;;
21444;SDS011;10883;51.946;20.140;2023-01-25T08:59:34;44.70;;;22.37;;
21444;SDS011;10883;51.946;20.140;2023-01-25T09:01:59;74.22;;;31.17;;
21444;SDS011;10883;51.946;20.140;2023-01-25T09:04:25;74.47;;;31.83;;
21444;SDS011;10883;51.946;20.140;2023-01-25T09:06:52;68.53;;;29.33;;
21444;SDS011;10883;51.946;20.140;2023-01-25T09:09:19;80.03;;;31.80;;
21444;SDS011;10883;51.946;20.140;2023-01-25T09:11:49;82.13;;;32.17;;
21444;SDS011;10883;51.946;20.140;2023-01-25T09:14:14;59.92;;;26.40;;
21444;SDS011;10883;51.946;20.140;2023-01-25T09:16:40;57.60;;;25.55;;
21444;SDS011;10883;51.946;20.140;2023-01-25T09:19:06;48.90;;;23.07;;
21444;SDS011;10883;51.946;20.140;2023-01-25T09:21:32;50.20;;;24.90;;
21444;SDS011;10883;51.946;20.140;2023-01-25T09:23:58;57.67;;;26.20;;
21444;SDS011;10883;51.946;20.140;2023-01-25T09:26:24;59.45;;;25.55;;
21444;SDS011;10883;51.946;20.140;2023-01-25T09:28:50;48.70;;;23.60;;
21444;SDS011;10883;51.946;20.140;2023-01-25T09:31:18;44.87;;;21.87;;
21444;SDS011;10883;51.946;20.140;2023-01-25T09:33:45;40.45;;;21.10;;
21444;SDS011;10883;51.946;20.140;2023-01-25T09:36:11;38.22;;;19.85;;
21444;SDS011;10883;51.946;20.140;2023-01-25T09:38:37;35.13;;;18.33;;
21444;SDS011;10883;51.946;20.140;2023-01-25T09:46:35;36.97;;;18.73;;
21444;SDS011;10883;51.946;20.140;2023-01-25T09:49:13;36.92;;;19.13;;
21444;SDS011;10883;51.946;20.140;2023-01-25T09:54:36;42.35;;;19.20;;
21444;SDS011;10883;51.946;20.140;2023-01-25T09:57:13;41.53;;;20.48;;
21444;SDS011;10883;51.946;20.140;2023-01-25T09:59:41;36.10;;;18.92;;
21444;SDS011;10883;51.946;20.140;2023-01-25T10:02:17;32.72;;;18.10;;
21444;SDS011;10883;51.946;20.140;2023-01-25T10:04:46;34.47;;;17.83;;
21444;SDS011;10883;51.946;20.140;2023-01-25T10:07:21;32.50;;;18.02;;
21444;SDS011;10883;51.946;20.140;2023-01-25T10:09:56;36.08;;;18.60;;
21444;SDS011;10883;51.946;20.140;2023-01-25T10:12:37;38.45;;;20.45;;
21444;SDS011;10883;51.946;20.140;2023-01-25T10:15:20;36.60;;;20.73;;
21444;SDS011;10883;51.946;20.140;2023-01-25T10:17:51;38.28;;;19.33;;
21444;SDS011;10883;51.946;20.140;2023-01-25T10:26:00;35.90;;;17.77;;
21444;SDS011;10883;51.946;20.140;2023-01-25T10:28:43;26.77;;;15.77;;
21444;SDS011;10883;51.946;20.140;2023-01-25T10:31:18;57.10;;;30.05;;
21444;SDS011;10883;51.946;20.140;2023-01-25T10:33:53;43.27;;;22.47;;
21444;SDS011;10883;51.946;20.140;2023-01-25T10:36:26;52.58;;;26.75;;
21444;SDS011;10883;51.946;20.140;2023-01-25T10:38:54;34.00;;;18.37;;
21444;SDS011;10883;51.946;20.140;2023-01-25T10:44:17;36.77;;;18.50;;
21444;SDS011;10883;51.946;20.140;2023-01-25T10:46:50;44.47;;;20.63;;
21444;SDS011;10883;51.946;20.140;2023-01-25T10:49:35;40.97;;;19.40;;
21444;SDS011;10883;51.946;20.140;2023-01-25T10:52:11;42.30;;;21.05;;
21444;SDS011;10883;51.946;20.140;2023-01-25T10:54:37;40.65;;;19.38;;
21444;SDS011;10883;51.946;20.140;2023-01-25T10:57:05;37.27;;;18.70;;
21444;SDS011;10883;51.946;20.140;2023-01-25T10:59:32;51.80;;;26.17;;
21444;SDS011;10883;51.946;20.140;2023-01-25T11:07:42;51.70;;;23.10;;
21444;SDS011;10883;51.946;20.140;2023-01-25T11:10:25;66.90;;;27.17;;
21444;SDS011;10883;51.946;20.140;2023-01-25T11:15:37;39.63;;;20.17;;
21444;SDS011;10883;51.946;20.140;2023-01-25T11:18:05;49.77;;;22.90;;
21444;SDS011;10883;51.946;20.140;2023-01-25T11:20:35;36.88;;;18.52;;
21444;SDS011;10883;51.946;20.140;2023-01-25T11:23:01;55.97;;;24.00;;
21444;SDS011;10883;51.946;20.140;2023-01-25T11:25:28;53.83;;;23.90;;
21444;SDS011;10883;51.946;20.140;2023-01-25T11:28:11;41.00;;;20.42;;
21444;SDS011;10883;51.946;20.140;2023-01-25T11:30:44;29.35;;;15.98;;
21444;SDS011;10883;51.946;20.140;2023-01-25T11:33:11;37.22;;;19.15;;
21444;SDS011;10883;51.946;20.140;2023-01-25T11:38:33;32.83;;;16.35;;
21444;SDS011;10883;51.946;20.140;2023-01-25T11:46:19;30.85;;;15.82;;
21444;SDS011;10883;51.946;20.140;2023-01-25T11:56:58;41.42;;;20.38;;
21444;SDS011;10883;51.946;20.140;2023-01-25T12:05:01;37.33;;;20.58;;
21444;SDS011;10883;51.946;20.140;2023-01-25T12:16:46;40.85;;;22.67;;
21444;SDS011;10883;51.946;20.140;2023-01-25T12:19:43;37.05;;;21.05;;
21444;SDS011;10883;51.946;20.140;2023-01-25T12:28:14;44.53;;;22.00;;
21444;SDS011;10883;51.946;20.140;2023-01-25T12:30:54;37.13;;;18.83;;
21444;SDS011;10883;51.946;20.140;2023-01-25T12:33:45;43.20;;;21.95;;
21444;SDS011;10883;51.946;20.140;2023-01-25T12:36:20;41.28;;;21.05;;
21444;SDS011;10883;51.946;20.140;2023-01-25T12:41:44;59.47;;;26.98;;
21444;SDS011;10883;51.946;20.140;2023-01-25T12:50:03;44.05;;;22.02;;
21444;SDS011;10883;51.946;20.140;2023-01-25T12:52:31;55.05;;;25.75;;
21444;SDS011;10883;51.946;20.140;2023-01-25T12:55:04;48.30;;;23.80;;
21444;SDS011;10883;51.946;20.140;2023-01-25T13:02:41;95.40;;;40.22;;
21444;SDS011;10883;51.946;20.140;2023-01-25T13:05:17;82.15;;;35.42;;
21444;SDS011;10883;51.946;20.140;2023-01-25T13:08:05;45.70;;;22.52;;
21444;SDS011;10883;51.946;20.140;2023-01-25T13:10:48;65.78;;;30.92;;
21444;SDS011;10883;51.946;20.140;2023-01-25T13:13:22;79.97;;;39.15;;
21444;SDS011;10883;51.946;20.140;2023-01-25T13:15:49;86.10;;;43.43;;
21444;SDS011;10883;51.946;20.140;2023-01-25T13:20:52;59.50;;;32.00;;
21444;SDS011;10883;51.946;20.140;2023-01-25T13:28:52;48.63;;;23.30;;
21444;SDS011;10883;51.946;20.140;2023-01-25T13:34:55;45.60;;;22.43;;
21444;SDS011;10883;51.946;20.140;2023-01-25T13:42:24;47.33;;;23.35;;
21444;SDS011;10883;51.946;20.140;2023-01-25T13:47:22;67.07;;;30.30;;
21444;SDS011;10883;51.946;20.140;2023-01-25T13:50:00;71.10;;;31.98;;
21444;SDS011;10883;51.946;20.140;2023-01-25T13:55:25;50.38;;;25.75;;
21444;SDS011;10883;51.946;20.140;2023-01-25T13:57:51;49.28;;;25.75;;
21444;SDS011;10883;51.946;20.140;2023-01-25T14:00:18;67.05;;;27.98;;
21444;SDS011;10883;51.946;20.140;2023-01-25T14:02:45;70.77;;;29.40;;
21444;SDS011;10883;51.946;20.140;2023-01-25T14:05:19;92.00;;;35.83;;
21444;SDS011;10883;51.946;20.140;2023-01-25T14:07:53;90.22;;;35.45;;
21444;SDS011;10883;51.946;20.140;2023-01-25T14:10:21;93.07;;;34.95;;
21444;SDS011;10883;51.946;20.140;2023-01-25T14:12:51;40.80;;;20.73;;
21444;SDS011;10883;51.946;20.140;2023-01-25T14:15:28;45.00;;;22.17;;
21444;SDS011;10883;51.946;20.140;2023-01-25T14:18:12;42.40;;;22.07;;
21444;SDS011;10883;51.946;20.140;2023-01-25T14:20:42;52.88;;;25.58;;
21444;SDS011;10883;51.946;20.140;2023-01-25T14:23:21;49.67;;;24.70;;
21444;SDS011;10883;51.946;20.140;2023-01-25T14:25:49;51.53;;;23.67;;
21444;SDS011;10883;51.946;20.140;2023-01-25T14:28:16;47.20;;;22.53;;
21444;SDS011;10883;51.946;20.140;2023-01-25T14:30:42;60.93;;;27.10;;
21444;SDS011;10883;51.946;20.140;2023-01-25T14:33:22;76.33;;;30.07;;
21444;SDS011;10883;51.946;20.140;2023-01-25T14:35:53;57.07;;;26.37;;
21444;SDS011;10883;51.946;20.140;2023-01-25T14:38:35;63.20;;;28.77;;
21444;SDS011;10883;51.946;20.140;2023-01-25T14:44:03;47.67;;;23.90;;
21444;SDS011;10883;51.946;20.140;2023-01-25T14:46:34;53.67;;;25.77;;
21444;SDS011;10883;51.946;20.140;2023-01-25T14:51:39;51.40;;;24.50;;
21444;SDS011;10883;51.946;20.140;2023-01-25T14:54:09;55.63;;;25.20;;
21444;SDS011;10883;51.946;20.140;2023-01-25T14:56:48;47.73;;;22.07;;
21444;SDS011;10883;51.946;20.140;2023-01-25T14:59:33;44.07;;;21.57;;
21444;SDS011;10883;51.946;20.140;2023-01-25T15:02:03;62.07;;;28.37;;
21444;SDS011;10883;51.946;20.140;2023-01-25T15:04:56;55.95;;;26.85;;
21444;SDS011;10883;51.946;20.140;2023-01-25T15:21:11;168.70;;;56.60;;
21444;SDS011;10883;51.946;20.140;2023-01-25T15:23:41;172.07;;;60.73;;
21444;SDS011;10883;51.946;20.140;2023-01-25T15:26:13;109.97;;;44.13;;
21444;SDS011;10883;51.946;20.140;2023-01-25T15:28:51;137.93;;;53.67;;
21444;SDS011;10883;51.946;20.140;2023-01-25T15:31:20;96.17;;;39.33;;
21444;SDS011;10883;51.946;20.140;2023-01-25T15:33:48;94.73;;;38.73;;
21444;SDS011;10883;51.946;20.140;2023-01-25T15:36:15;86.60;;;36.03;;
21444;SDS011;10883;51.946;20.140;2023-01-25T15:38:41;64.73;;;30.07;;
21444;SDS011;10883;51.946;20.140;2023-01-25T15:41:07;90.20;;;37.93;;
21444;SDS011;10883;51.946;20.140;2023-01-25T15:43:34;89.47;;;40.53;;
21444;SDS011;10883;51.946;20.140;2023-01-25T15:46:00;103.05;;;43.13;;
21444;SDS011;10883;51.946;20.140;2023-01-25T15:48:32;75.37;;;34.27;;
21444;SDS011;10883;51.946;20.140;2023-01-25T15:51:03;63.33;;;29.30;;
21444;SDS011;10883;51.946;20.140;2023-01-25T15:53:29;72.23;;;32.20;;
21444;SDS011;10883;51.946;20.140;2023-01-25T15:58:59;63.97;;;28.50;;
21444;SDS011;10883;51.946;20.140;2023-01-25T16:01:29;56.07;;;26.53;;
21444;SDS011;10883;51.946;20.140;2023-01-25T16:03:55;76.83;;;35.10;;
21444;SDS011;10883;51.946;20.140;2023-01-25T16:08:57;84.37;;;37.50;;
21444;SDS011;10883;51.946;20.140;2023-01-25T16:11:24;62.75;;;30.20;;
21444;SDS011;10883;51.946;20.140;2023-01-25T16:13:50;78.00;;;34.37;;
21444;SDS011;10883;51.946;20.140;2023-01-25T16:16:23;80.37;;;36.67;;
21444;SDS011;10883;51.946;20.140;2023-01-25T16:18:49;85.07;;;35.90;;
21444;SDS011;10883;51.946;20.140;2023-01-25T16:21:15;57.83;;;26.83;;
21444;SDS011;10883;51.946;20.140;2023-01-25T16:23:41;56.60;;;25.43;;
21444;SDS011;10883;51.946;20.140;2023-01-25T16:26:17;65.53;;;28.27;;
21444;SDS011;10883;51.946;20.140;2023-01-25T16:28:47;75.63;;;34.03;;